DR5002 EDDH-EKCH
Flight info
| Callsign | DR5002 |
|---|---|
| Flight time | N/A |
| Altitude | 39000 |
| Route | LUGEG3G LUGEG P605 GESKA Z711 MONAK |
| Aircraft | B788/H-SDE1E2E3FGHIJ2J3J4J5M1RWXY/LB1D1 |
Departure
| Time | 2026-04-24 10:21 |
|---|---|
| Airport | Hamburg Helmut Schmidt Airport (EDDH) |
Arrival
| Time | N/A |
|---|---|
| Airport | Copenhagen Kastrup Airport (EKCH) |
| Time | Latitude | Longitude | Altitude | Speed | Heading |
|---|---|---|---|---|---|
| 2026-04-24 08:57 | 53.63208 | 10.00339 | 54 ft | 0 kts | 86° |
| 2026-04-24 08:58 | 53.63207 | 10.00339 | 55 ft | 0 kts | 86° |
| 2026-04-24 10:11 | 53.63207 | 10.00314 | 54 ft | 2 kts | 89° |
| 2026-04-24 10:11 | 53.63208 | 10.00286 | 49 ft | 2 kts | 93° |
| 2026-04-24 10:11 | 53.63210 | 10.00258 | 49 ft | 2 kts | 101° |
| 2026-04-24 10:12 | 53.63216 | 10.00232 | 47 ft | 2 kts | 118° |
| 2026-04-24 10:12 | 53.63228 | 10.00214 | 47 ft | 2 kts | 151° |
| 2026-04-24 10:12 | 53.63240 | 10.00208 | 47 ft | 1 kts | 170° |
| 2026-04-24 10:12 | 53.63242 | 10.00208 | 47 ft | 0 kts | 172° |
| 2026-04-24 10:14 | 53.63237 | 10.00209 | 47 ft | 2 kts | 172° |
| 2026-04-24 10:14 | 53.63219 | 10.00213 | 47 ft | 3 kts | 173° |
| 2026-04-24 10:14 | 53.63190 | 10.00219 | 47 ft | 5 kts | 174° |
| 2026-04-24 10:15 | 53.63152 | 10.00223 | 54 ft | 6 kts | 178° |
| 2026-04-24 10:15 | 53.63105 | 10.00226 | 49 ft | 5 kts | 187° |
| 2026-04-24 10:15 | 53.63079 | 10.00211 | 47 ft | 3 kts | 204° |
| 2026-04-24 10:15 | 53.63055 | 10.00195 | 50 ft | 4 kts | 202° |
| 2026-04-24 10:16 | 53.63026 | 10.00171 | 45 ft | 5 kts | 207° |
| 2026-04-24 10:16 | 53.62990 | 10.00139 | 45 ft | 6 kts | 208° |
| 2026-04-24 10:16 | 53.62949 | 10.00097 | 47 ft | 7 kts | 215° |
| 2026-04-24 10:16 | 53.62907 | 10.00055 | 46 ft | 7 kts | 204° |
| 2026-04-24 10:17 | 53.62867 | 10.00017 | 51 ft | 6 kts | 225° |
| 2026-04-24 10:17 | 53.62852 | 9.99979 | 51 ft | 4 kts | 239° |
| 2026-04-24 10:17 | 53.62851 | 9.99978 | 51 ft | 0 kts | 239° |
| 2026-04-24 10:18 | 53.62850 | 9.99973 | 51 ft | 1 kts | 239° |
| 2026-04-24 10:18 | 53.62843 | 9.99955 | 49 ft | 2 kts | 240° |
| 2026-04-24 10:18 | 53.62833 | 9.99926 | 51 ft | 3 kts | 240° |
| 2026-04-24 10:18 | 53.62822 | 9.99890 | 49 ft | 4 kts | 245° |
| 2026-04-24 10:19 | 53.62815 | 9.99849 | 50 ft | 4 kts | 266° |
| 2026-04-24 10:19 | 53.62824 | 9.99796 | 45 ft | 5 kts | 304° |
| 2026-04-24 10:19 | 53.62842 | 9.99764 | 48 ft | 1 kts | 331° |
| 2026-04-24 10:19 | 53.62843 | 9.99764 | 48 ft | 0 kts | 331° |
| 2026-04-24 10:20 | 53.62844 | 9.99763 | 48 ft | 3 kts | 331° |
| 2026-04-24 10:20 | 53.63008 | 9.99616 | 47 ft | 55 kts | 334° |
| 2026-04-24 10:21 | 53.63524 | 9.99176 | 50 ft | 110 kts | 333° |
| 2026-04-24 10:21 | 53.64303 | 9.98503 | 365 ft | 132 kts | 328° |
| 2026-04-24 10:21 | 53.65241 | 9.97775 | 770 ft | 161 kts | 330° |
| 2026-04-24 10:21 | 53.66180 | 9.97013 | 2045 ft | 130 kts | 330° |
| 2026-04-24 10:22 | 53.66940 | 9.96376 | 2828 ft | 129 kts | 332° |
| 2026-04-24 10:22 | 53.67906 | 9.95518 | 2723 ft | 180 kts | 332° |
| 2026-04-24 10:22 | 53.69080 | 9.94583 | 3206 ft | 197 kts | 339° |
| 2026-04-24 10:22 | 53.70658 | 9.94487 | 2933 ft | 254 kts | 5° |
| 2026-04-24 10:23 | 53.72353 | 9.95264 | 3772 ft | 259 kts | 29° |
| 2026-04-24 10:23 | 53.73694 | 9.97370 | 4674 ft | 263 kts | 45° |
| 2026-04-24 10:23 | 53.74761 | 9.99737 | 6152 ft | 240 kts | 52° |
| 2026-04-24 10:23 | 53.75510 | 10.02217 | 7225 ft | 239 kts | 60° |
| 2026-04-24 10:24 | 53.76245 | 10.04869 | 7579 ft | 262 kts | 59° |
| 2026-04-24 10:24 | 53.77100 | 10.07734 | 8017 ft | 280 kts | 58° |
| 2026-04-24 10:24 | 53.77968 | 10.10616 | 9155 ft | 266 kts | 58° |
| 2026-04-24 10:24 | 53.78765 | 10.13317 | 10444 ft | 250 kts | 58° |
| 2026-04-24 10:25 | 53.79533 | 10.15954 | 11009 ft | 261 kts | 58° |
| 2026-04-24 10:25 | 53.80393 | 10.18852 | 11093 ft | 291 kts | 58° |
| 2026-04-24 10:25 | 53.81338 | 10.21977 | 11624 ft | 300 kts | 58° |
| 2026-04-24 10:25 | 53.82253 | 10.25024 | 12910 ft | 279 kts | 58° |
| 2026-04-24 10:26 | 53.83095 | 10.27892 | 14072 ft | 268 kts | 58° |
| 2026-04-24 10:26 | 53.83947 | 10.30798 | 14358 ft | 287 kts | 59° |
| 2026-04-24 10:26 | 53.84901 | 10.33980 | 14330 ft | 317 kts | 58° |
| 2026-04-24 10:26 | 53.85919 | 10.37343 | 14953 ft | 318 kts | 58° |
| 2026-04-24 10:27 | 53.86844 | 10.40635 | 16170 ft | 301 kts | 64° |
| 2026-04-24 10:27 | 53.87555 | 10.43852 | 17197 ft | 293 kts | 66° |
| 2026-04-24 10:27 | 53.88245 | 10.47158 | 17559 ft | 307 kts | 67° |
| 2026-04-24 10:27 | 53.88990 | 10.50711 | 17541 ft | 332 kts | 67° |
| 2026-04-24 10:28 | 53.89779 | 10.54457 | 18034 ft | 338 kts | 67° |
| 2026-04-24 10:28 | 53.90633 | 10.58066 | 19093 ft | 320 kts | 60° |
| 2026-04-24 10:28 | 53.91786 | 10.61244 | 19787 ft | 317 kts | 51° |
| 2026-04-24 10:28 | 53.93125 | 10.64276 | 20110 ft | 326 kts | 49° |
| 2026-04-24 10:29 | 53.94430 | 10.67518 | 20340 ft | 340 kts | 53° |
| 2026-04-24 10:29 | 53.95814 | 10.70761 | 20752 ft | 344 kts | 50° |
| 2026-04-24 10:29 | 53.97280 | 10.73899 | 21666 ft | 332 kts | 46° |
| 2026-04-24 10:29 | 53.98808 | 10.76749 | 22554 ft | 323 kts | 44° |
| 2026-04-24 10:30 | 54.00374 | 10.79528 | 22930 ft | 330 kts | 43° |
| 2026-04-24 10:30 | 54.02019 | 10.82403 | 22916 ft | 349 kts | 43° |
| 2026-04-24 10:30 | 54.03750 | 10.85404 | 23139 ft | 359 kts | 43° |
| 2026-04-24 10:30 | 54.05486 | 10.88417 | 23915 ft | 351 kts | 43° |
| 2026-04-24 10:31 | 54.07161 | 10.91342 | 24748 ft | 339 kts | 43° |
| 2026-04-24 10:31 | 54.08798 | 10.94214 | 25241 ft | 340 kts | 43° |
| 2026-04-24 10:31 | 54.10469 | 10.97165 | 25246 ft | 355 kts | 45° |
| 2026-04-24 10:31 | 54.12073 | 11.00477 | 24996 ft | 380 kts | 52° |
| 2026-04-24 10:32 | 54.13513 | 11.04278 | 25100 ft | 377 kts | 53° |
| 2026-04-24 10:32 | 54.15051 | 11.07799 | 25522 ft | 366 kts | 46° |
| 2026-04-24 10:32 | 54.16844 | 11.10836 | 25956 ft | 363 kts | 37° |
| 2026-04-24 10:32 | 54.18825 | 11.13519 | 26419 ft | 362 kts | 35° |
| 2026-04-24 10:33 | 54.20795 | 11.16171 | 26912 ft | 356 kts | 36° |
| 2026-04-24 10:33 | 54.22599 | 11.18953 | 26931 ft | 348 kts | 44° |
| 2026-04-24 10:33 | 54.24177 | 11.22180 | 26050 ft | 364 kts | 47° |
| 2026-04-24 10:33 | 54.25829 | 11.25646 | 25090 ft | 384 kts | 48° |
| 2026-04-24 10:34 | 54.27498 | 11.29150 | 24847 ft | 381 kts | 48° |
| 2026-04-24 10:34 | 54.29118 | 11.32574 | 25227 ft | 358 kts | 48° |
| 2026-04-24 10:34 | 54.30632 | 11.35801 | 25464 ft | 341 kts | 48° |
| 2026-04-24 10:34 | 54.32111 | 11.38966 | 25003 ft | 345 kts | 48° |
| 2026-04-24 10:35 | 54.33652 | 11.42251 | 24122 ft | 363 kts | 48° |
| 2026-04-24 10:35 | 54.35270 | 11.45681 | 23486 ft | 373 kts | 48° |
| 2026-04-24 10:35 | 54.36880 | 11.49093 | 23552 ft | 360 kts | 48° |
| 2026-04-24 10:35 | 54.38400 | 11.52339 | 23868 ft | 339 kts | 48° |
| 2026-04-24 10:36 | 54.39851 | 11.55461 | 23735 ft | 333 kts | 48° |
| 2026-04-24 10:36 | 54.41299 | 11.58576 | 22964 ft | 345 kts | 48° |
| 2026-04-24 10:36 | 54.42836 | 11.61863 | 22162 ft | 359 kts | 48° |
| 2026-04-24 10:36 | 54.44395 | 11.65197 | 21952 ft | 354 kts | 48° |
| 2026-04-24 10:37 | 54.45895 | 11.68410 | 22167 ft | 335 kts | 47° |
| 2026-04-24 10:37 | 54.47455 | 11.71286 | 22069 ft | 326 kts | 41° |
| 2026-04-24 10:37 | 54.49086 | 11.74029 | 21512 ft | 332 kts | 40° |
| 2026-04-24 10:37 | 54.50780 | 11.76813 | 20797 ft | 342 kts | 40° |
| 2026-04-24 10:38 | 54.52567 | 11.79687 | 19711 ft | 363 kts | 40° |
| 2026-04-24 10:38 | 54.54457 | 11.82664 | 19379 ft | 362 kts | 39° |
| 2026-04-24 10:38 | 54.56174 | 11.85367 | 20379 ft | 314 kts | 39° |
| 2026-04-24 10:38 | 54.57681 | 11.87777 | 21014 ft | 284 kts | 39° |
| 2026-04-24 10:39 | 54.59169 | 11.90166 | 20283 ft | 309 kts | 39° |
| 2026-04-24 10:39 | 54.60876 | 11.92843 | 19056 ft | 351 kts | 38° |
| 2026-04-24 10:39 | 54.62929 | 11.95571 | 17181 ft | 397 kts | 33° |
| 2026-04-24 10:39 | 54.65359 | 11.98335 | 16171 ft | 420 kts | 30° |
| 2026-04-24 10:40 | 54.67491 | 12.00590 | 19682 ft | 293 kts | 28° |